Time;durP1;ratioP1;P1;durP2;ratioP2;P2;SDS_P1;SDS_P2;PMS_P1;PMS_P2;Temp;Humidity;BMP_temperature;BMP_pressure;BME280_temperature;BME280_humidity;BME280_pressure;Samples;Min_cycle;Max_cycle;Signal;HPM_P1;HPM_P2
2024/01/16 00:00:15;;;;;;;5.47;1.70;;;;;;;;;;5075969;28;20044;-67
2024/01/16 00:02:40;;;;;;;4.50;1.60;;;;;;;;;;5067050;28;20044;-66
2024/01/16 00:05:06;;;;;;;2.63;1.10;;;;;;;;;;5069904;28;20024;-66
2024/01/16 00:07:33;;;;;;;4.30;1.60;;;;;;;;;;5069508;28;20016;-66
2024/01/16 00:09:58;;;;;;;6.40;1.43;;;;;;;;;;5070795;28;20052;-66
2024/01/16 00:12:24;;;;;;;6.50;1.80;;;;;;;;;;5066640;28;20068;-67
2024/01/16 00:14:49;;;;;;;4.87;1.23;;;;;;;;;;5069617;28;20499;-67
2024/01/16 00:17:14;;;;;;;5.17;1.60;;;;;;;;;;5077290;28;20016;-67
2024/01/16 00:19:40;;;;;;;7.07;1.27;;;;;;;;;;5070790;28;20027;-66
2024/01/16 00:22:05;;;;;;;5.73;1.27;;;;;;;;;;5069285;28;20089;-66
2024/01/16 00:24:30;;;;;;;2.60;1.00;;;;;;;;;;5069607;28;20017;-65
2024/01/16 00:26:55;;;;;;;4.13;1.00;;;;;;;;;;5076197;28;20065;-67
2024/01/16 00:29:21;;;;;;;3.80;1.10;;;;;;;;;;5075693;28;20071;-67
2024/01/16 00:31:46;;;;;;;4.87;1.30;;;;;;;;;;5069629;28;20029;-66
2024/01/16 00:34:12;;;;;;;2.23;1.03;;;;;;;;;;5071148;28;20036;-67
2024/01/16 00:36:37;;;;;;;2.57;1.00;;;;;;;;;;5071677;28;20435;-66
2024/01/16 00:39:03;;;;;;;2.73;0.97;;;;;;;;;;5081063;28;20032;-66
2024/01/16 00:41:29;;;;;;;2.33;1.10;;;;;;;;;;5067229;28;20545;-67
2024/01/16 00:43:54;;;;;;;3.63;1.10;;;;;;;;;;5068339;28;20384;-67
2024/01/16 00:46:20;;;;;;;2.67;1.20;;;;;;;;;;5075699;28;20021;-67
2024/01/16 00:48:45;;;;;;;2.80;1.20;;;;;;;;;;5073187;28;20024;-67
2024/01/16 00:51:11;;;;;;;8.30;1.43;;;;;;;;;;5083145;28;20043;-67
2024/01/16 00:53:45;;;;;;;3.23;1.17;;;;;;;;;;5074498;28;20089;-67
2024/01/16 00:56:10;;;;;;;2.77;1.23;;;;;;;;;;5070546;28;20036;-66
2024/01/16 00:58:36;;;;;;;4.00;1.23;;;;;;;;;;5068734;28;20021;-67
2024/01/16 01:01:01;;;;;;;2.70;1.40;;;;;;;;;;5073610;28;20023;-67
2024/01/16 01:03:26;;;;;;;4.03;1.70;;;;;;;;;;5077497;28;20396;-67
2024/01/16 01:05:51;;;;;;;4.53;1.80;;;;;;;;;;5076617;28;20025;-66
2024/01/16 01:08:17;;;;;;;3.90;1.33;;;;;;;;;;5073660;28;20385;-66
2024/01/16 01:10:42;;;;;;;4.63;1.53;;;;;;;;;;5067311;28;20024;-67
2024/01/16 01:13:07;;;;;;;2.97;1.30;;;;;;;;;;5072014;28;20124;-67
2024/01/16 01:15:32;;;;;;;7.77;1.60;;;;;;;;;;5077132;28;20077;-67
2024/01/16 01:17:58;;;;;;;8.00;1.57;;;;;;;;;;5067883;28;20032;-67
2024/01/16 01:20:23;;;;;;;6.30;1.70;;;;;;;;;;5054965;28;20052;-67
2024/01/16 01:22:48;;;;;;;3.70;1.33;;;;;;;;;;5065725;28;20025;-67
2024/01/16 01:25:14;;;;;;;5.77;1.57;;;;;;;;;;5070698;28;20474;-67
2024/01/16 01:27:39;;;;;;;5.67;1.47;;;;;;;;;;5071796;28;20484;-67
2024/01/16 01:30:10;;;;;;;3.70;1.30;;;;;;;;;;5067965;28;20021;-67
2024/01/16 01:32:36;;;;;;;4.90;1.58;;;;;;;;;;5070686;28;20017;-67
2024/01/16 01:35:01;;;;;;;6.57;1.60;;;;;;;;;;5078291;28;20085;-67
2024/01/16 01:37:26;;;;;;;7.90;1.53;;;;;;;;;;5076836;28;20521;-67
2024/01/16 01:39:52;;;;;;;9.57;1.70;;;;;;;;;;5069270;28;20024;-67
2024/01/16 01:42:17;;;;;;;6.43;1.70;;;;;;;;;;5072342;28;20025;-67
2024/01/16 01:44:42;;;;;;;4.70;1.40;;;;;;;;;;5076268;28;20024;-67
2024/01/16 01:47:08;;;;;;;5.03;1.30;;;;;;;;;;5077712;28;20036;-67
2024/01/16 01:49:34;;;;;;;2.63;1.10;;;;;;;;;;5076140;28;20031;-67
2024/01/16 01:51:59;;;;;;;5.10;1.03;;;;;;;;;;5076748;28;20037;-68
2024/01/16 01:54:26;;;;;;;4.53;1.30;;;;;;;;;;5080482;28;20027;-67
2024/01/16 01:56:51;;;;;;;3.67;1.20;;;;;;;;;;5073256;28;20020;-67
2024/01/16 01:59:19;;;;;;;2.33;0.87;;;;;;;;;;5083501;28;20051;-67
2024/01/16 02:01:45;;;;;;;2.97;0.97;;;;;;;;;;5069011;28;20048;-66
2024/01/16 02:04:12;;;;;;;6.33;1.27;;;;;;;;;;5081324;28;20032;-66
2024/01/16 02:06:38;;;;;;;5.00;1.00;;;;;;;;;;5072011;28;20028;-66
2024/01/16 02:09:06;;;;;;;2.20;1.10;;;;;;;;;;5077302;28;20028;-66
2024/01/16 02:11:32;;;;;;;7.90;1.20;;;;;;;;;;5080421;28;20032;-67
2024/01/16 02:13:57;;;;;;;3.40;1.33;;;;;;;;;;5073803;28;20052;-66
2024/01/16 02:16:23;;;;;;;4.53;1.37;;;;;;;;;;5077623;28;20063;-67
2024/01/16 02:18:49;;;;;;;3.37;1.20;;;;;;;;;;5074724;28;21737;-66
2024/01/16 02:21:20;;;;;;;6.27;1.50;;;;;;;;;;5077063;28;20031;-66
2024/01/16 02:23:45;;;;;;;5.82;1.52;;;;;;;;;;5077262;28;20136;-66
2024/01/16 02:26:10;;;;;;;7.70;1.27;;;;;;;;;;5077092;28;20447;-66
2024/01/16 02:28:36;;;;;;;4.40;1.20;;;;;;;;;;5067093;28;20073;-66
2024/01/16 02:31:01;;;;;;;9.53;1.73;;;;;;;;;;5073549;28;20020;-66
2024/01/16 02:33:27;;;;;;;5.03;1.67;;;;;;;;;;5079143;28;20047;-66
2024/01/16 02:35:52;;;;;;;7.13;1.60;;;;;;;;;;5071530;28;20385;-67
2024/01/16 02:38:17;;;;;;;6.27;1.70;;;;;;;;;;5073631;28;20432;-67
2024/01/16 02:40:43;;;;;;;8.00;1.87;;;;;;;;;;5071198;28;20052;-67
2024/01/16 02:43:08;;;;;;;11.40;1.80;;;;;;;;;;5068575;28;20114;-67
2024/01/16 02:45:33;;;;;;;11.97;1.97;;;;;;;;;;5073065;28;20027;-66
2024/01/16 02:47:59;;;;;;;9.93;1.47;;;;;;;;;;5074285;28;20413;-66
2024/01/16 02:50:24;;;;;;;9.40;1.67;;;;;;;;;;5071727;28;20039;-66
2024/01/16 02:52:49;;;;;;;5.27;1.30;;;;;;;;;;5074772;28;20089;-66
2024/01/16 02:55:14;;;;;;;6.37;1.53;;;;;;;;;;5075315;28;20024;-67
2024/01/16 02:57:40;;;;;;;8.13;1.50;;;;;;;;;;5077377;28;20354;-66
2024/01/16 03:00:05;;;;;;;7.27;1.70;;;;;;;;;;5075496;28;20036;-65
2024/01/16 03:02:31;;;;;;;6.57;1.23;;;;;;;;;;5078337;28;20181;-66
2024/01/16 03:04:56;;;;;;;6.67;1.20;;;;;;;;;;5082753;28;20028;-66
2024/01/16 03:07:21;;;;;;;6.10;1.40;;;;;;;;;;5078611;28;20015;-66
2024/01/16 03:09:46;;;;;;;8.07;1.50;;;;;;;;;;5076584;28;20020;-66
2024/01/16 03:12:12;;;;;;;7.10;1.80;;;;;;;;;;5075510;28;20039;-65
2024/01/16 03:14:38;;;;;;;6.30;1.30;;;;;;;;;;5079360;28;20032;-66
2024/01/16 03:17:04;;;;;;;6.43;1.50;;;;;;;;;;5072233;28;20113;-66
2024/01/16 03:19:29;;;;;;;7.63;1.40;;;;;;;;;;5081117;28;20079;-66
2024/01/16 03:21:55;;;;;;;8.67;1.23;;;;;;;;;;5076027;28;20036;-65
2024/01/16 03:24:20;;;;;;;5.77;1.67;;;;;;;;;;5073302;28;20116;-65
2024/01/16 03:26:45;;;;;;;7.43;1.83;;;;;;;;;;5071899;28;20029;-67
2024/01/16 03:29:11;;;;;;;7.97;1.23;;;;;;;;;;5072107;28;20020;-66
2024/01/16 03:31:36;;;;;;;7.07;1.30;;;;;;;;;;5078885;28;20020;-66
2024/01/16 03:34:01;;;;;;;4.10;1.40;;;;;;;;;;5071285;28;20085;-66
2024/01/16 03:36:27;;;;;;;8.03;1.90;;;;;;;;;;5075765;28;20039;-66
2024/01/16 03:38:52;;;;;;;6.93;1.20;;;;;;;;;;5067661;28;20520;-67
2024/01/16 03:41:17;;;;;;;6.07;1.60;;;;;;;;;;5079781;28;20036;-66
2024/01/16 03:43:42;;;;;;;7.87;1.40;;;;;;;;;;5072005;28;20079;-66
2024/01/16 03:46:10;;;;;;;7.37;1.43;;;;;;;;;;5067642;28;20103;-66
2024/01/16 03:48:35;;;;;;;11.60;2.23;;;;;;;;;;5075000;28;20410;-66
2024/01/16 03:51:02;;;;;;;10.47;1.57;;;;;;;;;;5072547;28;20024;-66
2024/01/16 03:53:27;;;;;;;5.93;1.33;;;;;;;;;;5072295;28;20477;-66
2024/01/16 03:55:52;;;;;;;6.90;1.60;;;;;;;;;;5078718;28;20027;-66
2024/01/16 03:58:18;;;;;;;8.60;1.50;;;;;;;;;;5072298;28;20025;-66
2024/01/16 04:00:46;;;;;;;5.60;1.53;;;;;;;;;;5074836;28;20024;-66
2024/01/16 04:03:13;;;;;;;4.30;1.30;;;;;;;;;;5076407;28;20508;-65
2024/01/16 04:05:38;;;;;;;9.37;1.60;;;;;;;;;;5074325;28;20020;-65
2024/01/16 04:08:03;;;;;;;13.83;1.57;;;;;;;;;;5075821;28;20112;-66
2024/01/16 04:10:28;;;;;;;11.53;1.40;;;;;;;;;;5075823;28;20181;-67
2024/01/16 04:12:54;;;;;;;5.10;1.30;;;;;;;;;;5072184;28;20024;-66
2024/01/16 04:15:19;;;;;;;7.57;1.43;;;;;;;;;;5070881;28;20082;-66
2024/01/16 04:17:44;;;;;;;6.87;1.27;;;;;;;;;;5074883;28;20481;-68
2024/01/16 04:20:10;;;;;;;3.20;1.30;;;;;;;;;;5073754;28;20158;-68
2024/01/16 04:22:36;;;;;;;4.53;1.30;;;;;;;;;;5069433;28;20028;-68
2024/01/16 04:25:01;;;;;;;4.93;1.23;;;;;;;;;;5067956;28;20016;-68
2024/01/16 04:27:26;;;;;;;7.90;1.50;;;;;;;;;;5076098;28;20059;-68
2024/01/16 04:29:52;;;;;;;5.80;1.30;;;;;;;;;;5077453;28;20012;-68
2024/01/16 04:32:17;;;;;;;6.40;1.50;;;;;;;;;;5078495;28;20515;-68
2024/01/16 04:34:42;;;;;;;7.97;1.50;;;;;;;;;;5073784;28;20021;-68
2024/01/16 04:37:07;;;;;;;3.83;1.47;;;;;;;;;;5066045;28;20029;-68
2024/01/16 04:39:33;;;;;;;6.87;1.60;;;;;;;;;;5074456;28;20024;-68
2024/01/16 04:41:58;;;;;;;4.83;1.20;;;;;;;;;;5076914;28;20036;-68
2024/01/16 04:44:24;;;;;;;11.27;1.90;;;;;;;;;;5074622;28;20029;-68
2024/01/16 04:46:49;;;;;;;5.50;1.40;;;;;;;;;;5065286;28;20025;-68
2024/01/16 04:49:14;;;;;;;5.33;1.60;;;;;;;;;;5081735;28;20032;-68
2024/01/16 04:51:39;;;;;;;8.43;1.97;;;;;;;;;;5075459;28;20104;-68
2024/01/16 04:54:05;;;;;;;8.10;1.97;;;;;;;;;;5071264;28;20028;-68
2024/01/16 04:56:30;;;;;;;10.83;2.43;;;;;;;;;;5065420;28;20434;-68
2024/01/16 04:58:55;;;;;;;9.73;2.03;;;;;;;;;;5067837;28;20107;-68
2024/01/16 05:01:20;;;;;;;12.90;2.10;;;;;;;;;;5070628;28;20052;-68
2024/01/16 05:03:46;;;;;;;5.43;1.77;;;;;;;;;;5069550;28;20081;-68
2024/01/16 05:06:14;;;;;;;8.10;2.33;;;;;;;;;;5076198;28;20536;-68
2024/01/16 05:08:40;;;;;;;6.50;1.87;;;;;;;;;;5067392;28;20079;-68
2024/01/16 05:11:05;;;;;;;11.17;2.63;;;;;;;;;;5068557;28;20052;-68
2024/01/16 05:13:30;;;;;;;7.23;2.87;;;;;;;;;;5079409;28;20131;-68
2024/01/16 05:15:55;;;;;;;9.83;2.90;;;;;;;;;;5073703;28;20481;-68
2024/01/16 05:18:21;;;;;;;10.73;1.93;;;;;;;;;;5072151;28;20028;-68
2024/01/16 05:20:46;;;;;;;7.87;2.80;;;;;;;;;;5073513;28;20032;-68
2024/01/16 05:23:12;;;;;;;7.43;2.40;;;;;;;;;;5072951;28;20025;-68
2024/01/16 05:25:37;;;;;;;10.83;3.10;;;;;;;;;;5078717;28;20050;-68
2024/01/16 05:28:03;;;;;;;6.97;3.17;;;;;;;;;;5073650;28;20027;-68
2024/01/16 05:30:28;;;;;;;11.03;3.37;;;;;;;;;;5077012;28;20059;-68
2024/01/16 05:32:54;;;;;;;14.27;3.10;;;;;;;;;;5079861;28;20392;-68
2024/01/16 05:35:20;;;;;;;12.10;3.47;;;;;;;;;;5081673;28;20066;-68
2024/01/16 05:37:45;;;;;;;15.57;3.40;;;;;;;;;;5081793;28;20381;-68
2024/01/16 05:40:11;;;;;;;10.37;3.33;;;;;;;;;;5076566;28;20036;-68
2024/01/16 05:42:38;;;;;;;9.67;3.13;;;;;;;;;;5076227;28;20033;-68
2024/01/16 05:45:03;;;;;;;13.00;3.17;;;;;;;;;;5075167;28;20020;-68
2024/01/16 05:47:30;;;;;;;8.40;2.50;;;;;;;;;;5085259;28;20047;-68
2024/01/16 05:49:56;;;;;;;18.20;3.20;;;;;;;;;;5076662;28;20105;-68
2024/01/16 05:52:21;;;;;;;12.33;3.03;;;;;;;;;;5075919;28;20035;-68
2024/01/16 05:54:47;;;;;;;12.60;2.97;;;;;;;;;;5071177;28;20169;-69
2024/01/16 05:57:12;;;;;;;6.57;1.87;;;;;;;;;;5074972;28;20024;-69
2024/01/16 05:59:37;;;;;;;13.30;3.50;;;;;;;;;;5080213;28;20425;-69
2024/01/16 06:02:02;;;;;;;9.00;2.87;;;;;;;;;;5072282;28;20056;-69
2024/01/16 06:04:28;;;;;;;7.70;2.50;;;;;;;;;;5068975;28;20031;-68
2024/01/16 06:06:53;;;;;;;11.13;2.80;;;;;;;;;;5065243;28;20090;-68
2024/01/16 06:09:18;;;;;;;9.33;2.80;;;;;;;;;;5073850;28;20028;-69
2024/01/16 06:11:44;;;;;;;7.70;2.73;;;;;;;;;;5072734;28;20051;-68
2024/01/16 06:14:09;;;;;;;9.90;3.40;;;;;;;;;;5073325;28;20072;-69
2024/01/16 06:16:34;;;;;;;6.63;2.23;;;;;;;;;;5069905;28;20025;-68
2024/01/16 06:19:00;;;;;;;14.37;3.50;;;;;;;;;;5073340;28;20047;-68
2024/01/16 06:21:26;;;;;;;23.20;3.83;;;;;;;;;;5074855;28;20461;-68
2024/01/16 06:23:51;;;;;;;10.53;3.30;;;;;;;;;;5072026;28;20043;-68
2024/01/16 06:26:17;;;;;;;11.37;3.93;;;;;;;;;;5070541;28;20150;-68
2024/01/16 06:28:42;;;;;;;9.43;3.50;;;;;;;;;;5080965;28;20035;-68
2024/01/16 06:31:08;;;;;;;17.83;4.53;;;;;;;;;;5078409;28;20357;-69
2024/01/16 06:33:33;;;;;;;9.03;3.37;;;;;;;;;;5082514;28;20396;-68
2024/01/16 06:35:58;;;;;;;13.27;3.90;;;;;;;;;;5075130;28;20527;-68
2024/01/16 06:38:24;;;;;;;10.83;4.03;;;;;;;;;;5076973;28;20767;-65
2024/01/16 06:40:49;;;;;;;9.37;3.67;;;;;;;;;;5079410;28;20028;-65
2024/01/16 06:43:15;;;;;;;10.30;3.63;;;;;;;;;;5075897;28;20035;-65
2024/01/16 06:45:42;;;;;;;11.10;3.57;;;;;;;;;;5076670;28;20181;-65
2024/01/16 06:48:07;;;;;;;10.30;3.57;;;;;;;;;;5082188;28;20472;-65
2024/01/16 06:50:32;;;;;;;15.97;3.80;;;;;;;;;;5076636;28;20107;-66
2024/01/16 06:52:58;;;;;;;11.33;3.97;;;;;;;;;;5066903;28;20029;-65
2024/01/16 06:55:23;;;;;;;10.57;3.97;;;;;;;;;;5080141;28;20027;-65
2024/01/16 06:57:48;;;;;;;9.73;3.13;;;;;;;;;;5076418;28;20029;-65
2024/01/16 07:00:14;;;;;;;10.83;3.33;;;;;;;;;;5078376;28;20040;-65
2024/01/16 07:02:39;;;;;;;9.50;3.37;;;;;;;;;;5069119;28;20048;-65
2024/01/16 07:05:05;;;;;;;9.40;3.17;;;;;;;;;;5063139;28;20024;-65
2024/01/16 07:07:30;;;;;;;10.23;2.97;;;;;;;;;;5078780;28;20016;-65
2024/01/16 07:09:55;;;;;;;12.00;3.80;;;;;;;;;;5075003;28;20142;-65
2024/01/16 07:12:20;;;;;;;7.90;2.90;;;;;;;;;;5073683;28;20028;-65
2024/01/16 07:14:47;;;;;;;13.13;4.53;;;;;;;;;;5071221;28;20028;-66
2024/01/16 07:17:12;;;;;;;13.73;3.80;;;;;;;;;;5071992;28;20024;-65
2024/01/16 07:19:37;;;;;;;13.70;3.87;;;;;;;;;;5070902;28;20432;-65
2024/01/16 07:22:03;;;;;;;12.90;3.70;;;;;;;;;;5072826;28;20100;-66
2024/01/16 07:24:28;;;;;;;9.00;2.83;;;;;;;;;;5073145;28;20032;-65
2024/01/16 07:26:54;;;;;;;14.30;3.73;;;;;;;;;;5073609;28;20433;-65
2024/01/16 07:29:19;;;;;;;8.30;3.37;;;;;;;;;;5077433;28;20081;-65
2024/01/16 07:31:45;;;;;;;8.77;3.10;;;;;;;;;;5074971;28;20152;-65
2024/01/16 07:34:10;;;;;;;12.70;4.10;;;;;;;;;;5070835;28;20074;-65
2024/01/16 07:36:35;;;;;;;12.33;3.50;;;;;;;;;;5076043;28;20023;-66
2024/01/16 07:39:01;;;;;;;10.93;3.63;;;;;;;;;;5078119;28;20027;-65
2024/01/16 07:41:26;;;;;;;11.97;3.73;;;;;;;;;;5076226;28;20103;-66
2024/01/16 07:43:51;;;;;;;17.63;4.67;;;;;;;;;;5077746;28;20033;-65
2024/01/16 07:46:17;;;;;;;11.93;3.77;;;;;;;;;;5075631;28;20055;-65
2024/01/16 07:48:42;;;;;;;11.13;3.67;;;;;;;;;;5076001;28;20027;-65
2024/01/16 07:51:08;;;;;;;15.97;3.90;;;;;;;;;;5078041;28;20036;-65
2024/01/16 07:53:33;;;;;;;14.17;4.00;;;;;;;;;;5076220;28;20060;-65
2024/01/16 07:55:58;;;;;;;13.17;4.10;;;;;;;;;;5075032;28;20044;-66
2024/01/16 07:58:23;;;;;;;7.43;1.70;;;;;;;;;;5076822;28;20119;-65
2024/01/16 08:00:49;;;;;;;11.90;2.97;;;;;;;;;;5075314;28;20028;-65
2024/01/16 08:03:14;;;;;;;11.77;3.73;;;;;;;;;;5076590;28;20455;-66
2024/01/16 08:05:39;;;;;;;14.47;4.30;;;;;;;;;;5073200;28;20012;-65
2024/01/16 08:08:05;;;;;;;13.57;4.20;;;;;;;;;;5074435;28;20024;-65
2024/01/16 08:10:30;;;;;;;18.57;3.90;;;;;;;;;;5072482;28;20032;-65
2024/01/16 08:12:56;;;;;;;11.77;4.10;;;;;;;;;;5066134;28;20782;-66
2024/01/16 08:15:21;;;;;;;16.30;4.23;;;;;;;;;;5076239;28;20020;-65
2024/01/16 08:17:47;;;;;;;10.90;4.27;;;;;;;;;;5071097;28;20358;-65
2024/01/16 08:20:12;;;;;;;11.27;3.83;;;;;;;;;;5074040;28;20024;-65
2024/01/16 08:22:38;;;;;;;11.77;3.87;;;;;;;;;;5068935;28;20028;-65
2024/01/16 08:25:04;;;;;;;6.83;2.87;;;;;;;;;;5073784;28;20056;-65
2024/01/16 08:27:30;;;;;;;15.60;3.83;;;;;;;;;;5073384;28;20031;-65
2024/01/16 08:29:55;;;;;;;8.60;3.47;;;;;;;;;;5073639;28;20024;-65
2024/01/16 08:32:21;;;;;;;10.73;3.30;;;;;;;;;;5066339;28;20031;-64
2024/01/16 08:34:46;;;;;;;10.23;2.77;;;;;;;;;;5069104;28;20106;-63
2024/01/16 08:37:11;;;;;;;6.83;2.60;;;;;;;;;;5077654;28;20047;-63
2024/01/16 08:39:36;;;;;;;10.40;3.23;;;;;;;;;;5074745;28;20473;-64
2024/01/16 08:42:03;;;;;;;7.10;2.30;;;;;;;;;;5073773;28;20047;-64
2024/01/16 08:44:28;;;;;;;9.20;2.90;;;;;;;;;;5074328;28;20024;-64
2024/01/16 08:46:54;;;;;;;12.77;3.47;;;;;;;;;;5077302;28;20146;-64
2024/01/16 08:49:19;;;;;;;8.07;3.23;;;;;;;;;;5079580;28;20028;-64
2024/01/16 08:51:45;;;;;;;9.17;3.50;;;;;;;;;;5072738;28;20448;-63
2024/01/16 08:54:10;;;;;;;11.63;2.90;;;;;;;;;;5071948;28;20496;-66
2024/01/16 08:56:35;;;;;;;8.63;3.40;;;;;;;;;;5076475;28;20158;-64
2024/01/16 08:59:01;;;;;;;6.20;2.97;;;;;;;;;;5074632;28;20020;-64
2024/01/16 09:01:26;;;;;;;6.37;2.50;;;;;;;;;;5071794;28;20447;-63
2024/01/16 09:03:51;;;;;;;11.87;3.50;;;;;;;;;;5077118;28;20024;-64
2024/01/16 09:06:16;;;;;;;7.87;2.80;;;;;;;;;;5072308;28;20028;-64
2024/01/16 09:08:44;;;;;;;7.47;3.13;;;;;;;;;;5071566;28;20028;-64
2024/01/16 09:11:09;;;;;;;7.17;3.40;;;;;;;;;;5068437;28;20362;-64
2024/01/16 09:13:34;;;;;;;4.67;2.40;;;;;;;;;;5077028;28;20024;-64
2024/01/16 09:16:00;;;;;;;4.23;2.03;;;;;;;;;;5077532;28;20082;-64
2024/01/16 09:18:25;;;;;;;8.00;2.57;;;;;;;;;;5069202;28;20051;-64
2024/01/16 09:20:50;;;;;;;5.87;2.70;;;;;;;;;;5063989;28;20020;-64
2024/01/16 09:23:16;;;;;;;10.50;2.77;;;;;;;;;;5070643;28;20024;-64
2024/01/16 09:25:41;;;;;;;5.87;2.67;;;;;;;;;;5073898;28;20444;-64
2024/01/16 09:28:06;;;;;;;9.73;2.87;;;;;;;;;;5068852;28;20047;-64
2024/01/16 09:30:33;;;;;;;6.30;2.73;;;;;;;;;;5072720;28;20052;-64
2024/01/16 09:32:58;;;;;;;9.30;3.37;;;;;;;;;;5069687;28;20112;-64
2024/01/16 09:35:24;;;;;;;9.47;3.63;;;;;;;;;;5085004;28;20495;-64
2024/01/16 09:37:49;;;;;;;6.83;3.00;;;;;;;;;;5073528;28;20033;-64
2024/01/16 09:40:14;;;;;;;11.03;3.20;;;;;;;;;;5077992;28;20492;-64
2024/01/16 09:42:41;;;;;;;9.97;3.83;;;;;;;;;;5074613;28;20020;-64
2024/01/16 09:45:06;;;;;;;8.70;3.10;;;;;;;;;;5066077;28;20035;-64
2024/01/16 09:47:32;;;;;;;12.67;3.90;;;;;;;;;;5071456;28;20024;-65
2024/01/16 09:50:00;;;;;;;8.03;3.60;;;;;;;;;;5072266;28;20028;-64
2024/01/16 09:52:25;;;;;;;10.90;3.67;;;;;;;;;;5067216;28;20034;-64
2024/01/16 09:54:50;;;;;;;8.80;3.70;;;;;;;;;;5074046;28;20024;-65
2024/01/16 09:57:17;;;;;;;11.90;3.67;;;;;;;;;;5073000;28;20032;-64
2024/01/16 09:59:42;;;;;;;10.03;3.40;;;;;;;;;;5074446;28;20028;-64
2024/01/16 10:02:10;;;;;;;7.83;2.73;;;;;;;;;;5076754;28;20705;-64
2024/01/16 10:04:35;;;;;;;7.80;3.63;;;;;;;;;;5074329;28;20444;-64
2024/01/16 10:07:01;;;;;;;11.57;3.60;;;;;;;;;;5074786;28;20041;-64
2024/01/16 10:09:26;;;;;;;7.10;3.23;;;;;;;;;;5075744;28;20012;-64
2024/01/16 10:11:52;;;;;;;11.67;3.90;;;;;;;;;;5074960;28;20031;-64
2024/01/16 10:14:17;;;;;;;9.77;3.27;;;;;;;;;;5078308;28;20369;-64
2024/01/16 10:16:59;;;;;;;10.33;3.27;;;;;;;;;;5080801;28;20044;-64
2024/01/16 10:19:24;;;;;;;5.60;2.40;;;;;;;;;;5073374;28;20066;-64
2024/01/16 10:21:50;;;;;;;5.70;2.87;;;;;;;;;;5081562;28;20747;-64
2024/01/16 10:24:16;;;;;;;12.93;4.27;;;;;;;;;;5083538;28;20078;-64
2024/01/16 10:26:41;;;;;;;11.10;3.93;;;;;;;;;;5073759;28;20745;-64
2024/01/16 10:29:06;;;;;;;4.93;2.37;;;;;;;;;;5067183;28;20071;-63
2024/01/16 10:31:31;;;;;;;7.93;3.17;;;;;;;;;;5077190;28;20021;-64
2024/01/16 10:33:57;;;;;;;11.00;3.80;;;;;;;;;;5080778;28;20663;-64
2024/01/16 10:36:23;;;;;;;10.23;3.70;;;;;;;;;;5076894;28;20143;-65
2024/01/16 10:38:51;;;;;;;9.50;3.47;;;;;;;;;;5075040;28;20373;-64
2024/01/16 10:41:17;;;;;;;9.07;3.03;;;;;;;;;;5070457;28;20416;-64
2024/01/16 10:43:44;;;;;;;7.87;3.37;;;;;;;;;;5078186;28;20044;-64
2024/01/16 10:46:16;;;;;;;8.33;3.73;;;;;;;;;;5074591;28;20466;-64
2024/01/16 10:48:42;;;;;;;7.80;3.67;;;;;;;;;;5072551;28;20013;-66
2024/01/16 10:51:11;;;;;;;7.17;3.40;;;;;;;;;;5067486;28;20028;-66
2024/01/16 10:53:37;;;;;;;6.23;2.50;;;;;;;;;;5081753;28;20410;-64
2024/01/16 10:56:04;;;;;;;8.03;3.47;;;;;;;;;;5079943;28;20095;-64
2024/01/16 10:58:31;;;;;;;8.77;3.13;;;;;;;;;;5075758;28;20207;-67
2024/01/16 11:00:57;;;;;;;9.67;4.20;;;;;;;;;;5070314;28;20023;-68
2024/01/16 11:03:30;;;;;;;10.60;3.80;;;;;;;;;;5075193;28;20016;-66
2024/01/16 11:05:57;;;;;;;12.30;4.30;;;;;;;;;;5080467;28;20020;-64
2024/01/16 11:08:27;;;;;;;8.07;3.90;;;;;;;;;;5076537;28;20046;-66
2024/01/16 11:10:52;;;;;;;12.33;5.07;;;;;;;;;;5069880;28;20362;-66
2024/01/16 11:13:18;;;;;;;9.27;3.33;;;;;;;;;;5072780;28;20031;-66
2024/01/16 11:15:45;;;;;;;9.60;4.43;;;;;;;;;;5076409;28;20016;-66
2024/01/16 11:18:12;;;;;;;9.00;4.33;;;;;;;;;;5077528;28;20024;-66
2024/01/16 11:20:42;;;;;;;15.73;5.50;;;;;;;;;;5072929;28;20027;-66
2024/01/16 11:23:09;;;;;;;9.70;4.53;;;;;;;;;;5076865;28;20072;-66
2024/01/16 11:25:34;;;;;;;12.43;5.20;;;;;;;;;;5075280;28;20056;-67
2024/01/16 11:28:10;;;;;;;12.50;4.57;;;;;;;;;;5075868;28;20373;-67
2024/01/16 11:30:35;;;;;;;13.27;5.00;;;;;;;;;;5074331;28;20099;-67
2024/01/16 11:33:01;;;;;;;13.90;5.63;;;;;;;;;;5079484;28;20099;-67
2024/01/16 11:35:40;;;;;;;13.20;6.20;;;;;;;;;;5075076;28;20028;-68
2024/01/16 11:38:14;;;;;;;13.97;5.37;;;;;;;;;;5069216;28;20116;-67
2024/01/16 11:40:39;;;;;;;12.63;5.50;;;;;;;;;;5080421;28;20025;-67
2024/01/16 11:43:23;;;;;;;10.70;4.70;;;;;;;;;;5078492;28;20028;-67
2024/01/16 11:45:49;;;;;;;10.07;4.90;;;;;;;;;;5071631;28;20043;-67
2024/01/16 11:48:14;;;;;;;13.27;5.30;;;;;;;;;;5069352;28;20381;-67
2024/01/16 11:50:40;;;;;;;14.77;6.90;;;;;;;;;;5068903;28;20032;-67
2024/01/16 11:53:05;;;;;;;14.33;5.40;;;;;;;;;;5076071;28;20035;-67
2024/01/16 11:55:32;;;;;;;11.10;5.00;;;;;;;;;;5069431;28;20159;-67
2024/01/16 11:57:57;;;;;;;11.57;5.80;;;;;;;;;;5066274;28;20389;-68
2024/01/16 12:00:25;;;;;;;16.43;6.27;;;;;;;;;;5068388;28;20108;-67
2024/01/16 12:02:55;;;;;;;14.53;6.13;;;;;;;;;;5073923;28;20083;-68
2024/01/16 12:05:21;;;;;;;13.43;5.77;;;;;;;;;;5073917;28;20537;-67
2024/01/16 12:07:49;;;;;;;12.67;5.13;;;;;;;;;;5071339;28;20095;-67
2024/01/16 12:10:14;;;;;;;15.53;5.20;;;;;;;;;;5067505;28;20019;-67
2024/01/16 12:12:39;;;;;;;12.63;5.27;;;;;;;;;;5079024;28;20024;-67
2024/01/16 12:15:06;;;;;;;13.53;6.00;;;;;;;;;;5078366;28;20476;-67
2024/01/16 12:17:32;;;;;;;9.57;4.37;;;;;;;;;;5074767;28;20028;-68
2024/01/16 12:19:57;;;;;;;10.23;5.30;;;;;;;;;;5074940;28;20112;-68
2024/01/16 12:22:23;;;;;;;14.13;5.90;;;;;;;;;;5076281;28;20029;-67
2024/01/16 12:24:48;;;;;;;11.40;5.63;;;;;;;;;;5070312;28;20074;-67
2024/01/16 12:27:14;;;;;;;15.47;5.80;;;;;;;;;;5078804;28;20024;-67
2024/01/16 12:29:42;;;;;;;12.03;4.93;;;;;;;;;;5072908;28;20020;-68
2024/01/16 12:32:11;;;;;;;15.40;6.07;;;;;;;;;;5075291;28;20388;-68
2024/01/16 12:34:49;;;;;;;9.17;4.37;;;;;;;;;;5075798;28;20077;-68
2024/01/16 12:37:14;;;;;;;12.47;5.00;;;;;;;;;;5079652;28;20032;-67
2024/01/16 12:39:41;;;;;;;22.73;4.07;;;;;;;;;;5073206;28;20500;-67
2024/01/16 12:42:06;;;;;;;13.07;5.63;;;;;;;;;;5072739;28;20035;-68
2024/01/16 12:44:32;;;;;;;10.17;5.27;;;;;;;;;;5070602;28;20020;-68
2024/01/16 12:46:57;;;;;;;10.67;5.57;;;;;;;;;;5070286;28;20103;-68
2024/01/16 12:49:23;;;;;;;9.60;4.50;;;;;;;;;;5076903;28;20040;-67
2024/01/16 12:51:49;;;;;;;11.00;5.23;;;;;;;;;;5079857;28;20024;-67
2024/01/16 12:54:15;;;;;;;13.97;6.07;;;;;;;;;;5070701;28;20381;-68
2024/01/16 12:56:41;;;;;;;11.27;4.70;;;;;;;;;;5068920;28;20082;-68
2024/01/16 12:59:12;;;;;;;11.50;5.13;;;;;;;;;;5072561;28;20021;-68
2024/01/16 13:01:42;;;;;;;15.00;5.90;;;;;;;;;;5075297;28;20056;-68
2024/01/16 13:04:07;;;;;;;13.37;5.70;;;;;;;;;;5072609;28;20029;-68
2024/01/16 13:06:33;;;;;;;15.23;6.17;;;;;;;;;;5072588;28;20027;-68
2024/01/16 13:09:09;;;;;;;12.33;5.57;;;;;;;;;;5062975;28;20111;-68
2024/01/16 13:11:44;;;;;;;14.43;6.73;;;;;;;;;;5076369;28;20525;-68
2024/01/16 13:14:09;;;;;;;14.47;4.13;;;;;;;;;;5070595;28;20073;-68
2024/01/16 13:16:35;;;;;;;15.17;5.73;;;;;;;;;;5071810;28;20017;-68
2024/01/16 13:19:01;;;;;;;11.20;5.30;;;;;;;;;;5069500;28;20377;-68
2024/01/16 13:21:26;;;;;;;12.57;5.90;;;;;;;;;;5076505;28;20024;-68
2024/01/16 13:23:51;;;;;;;9.10;3.77;;;;;;;;;;5073298;28;20033;-67
2024/01/16 13:26:17;;;;;;;11.30;4.50;;;;;;;;;;5077174;28;20021;-67
2024/01/16 13:28:42;;;;;;;16.33;6.10;;;;;;;;;;5068569;28;20092;-67
2024/01/16 13:31:08;;;;;;;11.90;5.20;;;;;;;;;;5081529;28;20381;-68
2024/01/16 13:33:33;;;;;;;12.43;6.33;;;;;;;;;;5078603;28;20035;-68
2024/01/16 13:35:58;;;;;;;12.07;6.40;;;;;;;;;;5076409;28;20036;-67
2024/01/16 13:38:24;;;;;;;12.03;6.50;;;;;;;;;;5072140;28;20044;-67
2024/01/16 13:40:50;;;;;;;15.60;6.63;;;;;;;;;;5078425;28;20032;-68
2024/01/16 13:43:15;;;;;;;14.33;6.30;;;;;;;;;;5073331;28;20070;-69
2024/01/16 13:45:41;;;;;;;14.47;6.23;;;;;;;;;;5077845;28;20533;-69
2024/01/16 13:48:07;;;;;;;15.80;6.73;;;;;;;;;;5079234;28;20055;-69
2024/01/16 13:50:33;;;;;;;12.27;5.27;;;;;;;;;;5080101;28;20161;-69
2024/01/16 13:52:58;;;;;;;17.33;7.17;;;;;;;;;;5073527;28;20099;-69
2024/01/16 13:55:24;;;;;;;17.23;8.00;;;;;;;;;;5073895;28;20460;-69
2024/01/16 13:57:49;;;;;;;15.60;7.30;;;;;;;;;;5082093;28;20050;-69
2024/01/16 14:00:15;;;;;;;20.90;7.70;;;;;;;;;;5078304;28;20028;-69
2024/01/16 14:02:47;;;;;;;15.60;7.93;;;;;;;;;;5077039;28;20048;-69
2024/01/16 14:05:17;;;;;;;16.00;8.13;;;;;;;;;;5067746;28;20580;-69
2024/01/16 14:07:44;;;;;;;20.70;9.90;;;;;;;;;;5073082;28;20044;-69
2024/01/16 14:10:11;;;;;;;17.17;8.20;;;;;;;;;;5078449;28;20431;-69
2024/01/16 14:12:37;;;;;;;24.90;11.00;;;;;;;;;;5073400;28;20024;-69
2024/01/16 14:15:09;;;;;;;19.13;9.30;;;;;;;;;;5068092;28;20039;-69
2024/01/16 14:17:35;;;;;;;14.50;6.07;;;;;;;;;;5070703;28;20021;-69
2024/01/16 14:20:00;;;;;;;18.70;10.33;;;;;;;;;;5077077;28;20031;-69
2024/01/16 14:22:26;;;;;;;15.17;7.27;;;;;;;;;;5074092;28;20033;-69
2024/01/16 14:24:52;;;;;;;13.67;7.83;;;;;;;;;;5070416;28;20016;-69
2024/01/16 14:27:17;;;;;;;21.87;10.20;;;;;;;;;;5075679;28;20026;-69